sensor_id;sensor_type;location;lat;lon;timestamp;temperature;humidity
3752;DHT22;50827;47.014;7.652;2023-02-15T00:01:43;2.60;99.90
3752;DHT22;50827;47.014;7.652;2023-02-15T00:04:12;2.50;99.90
3752;DHT22;50827;47.014;7.652;2023-02-15T00:06:39;2.60;99.90
3752;DHT22;50827;47.014;7.652;2023-02-15T00:09:06;2.60;99.90
3752;DHT22;50827;47.014;7.652;2023-02-15T00:11:33;2.60;99.90
3752;DHT22;50827;47.014;7.652;2023-02-15T00:14:14;2.60;99.90
3752;DHT22;50827;47.014;7.652;2023-02-15T00:16:42;2.60;99.90
3752;DHT22;50827;47.014;7.652;2023-02-15T00:19:11;2.60;99.90
3752;DHT22;50827;47.014;7.652;2023-02-15T00:21:38;2.50;99.90
3752;DHT22;50827;47.014;7.652;2023-02-15T00:24:07;2.50;99.90
3752;DHT22;50827;47.014;7.652;2023-02-15T00:26:35;2.50;99.90
3752;DHT22;50827;47.014;7.652;2023-02-15T00:29:02;2.40;99.90
3752;DHT22;50827;47.014;7.652;2023-02-15T00:31:30;2.40;99.90
3752;DHT22;50827;47.014;7.652;2023-02-15T00:34:19;2.40;99.90
3752;DHT22;50827;47.014;7.652;2023-02-15T00:36:46;2.40;99.90
3752;DHT22;50827;47.014;7.652;2023-02-15T00:39:14;2.40;99.90
3752;DHT22;50827;47.014;7.652;2023-02-15T00:41:41;2.50;99.90
3752;DHT22;50827;47.014;7.652;2023-02-15T00:44:08;2.40;99.90
3752;DHT22;50827;47.014;7.652;2023-02-15T00:46:35;2.30;99.90
3752;DHT22;50827;47.014;7.652;2023-02-15T00:49:03;2.30;99.90
3752;DHT22;50827;47.014;7.652;2023-02-15T00:51:30;2.30;99.90
3752;DHT22;50827;47.014;7.652;2023-02-15T00:53:56;2.20;99.90
3752;DHT22;50827;47.014;7.652;2023-02-15T00:56:23;2.20;99.90
3752;DHT22;50827;47.014;7.652;2023-02-15T00:58:50;2.20;99.90
3752;DHT22;50827;47.014;7.652;2023-02-15T01:01:19;2.20;99.90
3752;DHT22;50827;47.014;7.652;2023-02-15T01:03:46;2.10;99.90
3752;DHT22;50827;47.014;7.652;2023-02-15T01:06:14;2.20;99.90
3752;DHT22;50827;47.014;7.652;2023-02-15T01:08:42;2.10;99.90
3752;DHT22;50827;47.014;7.652;2023-02-15T01:11:11;2.10;99.90
3752;DHT22;50827;47.014;7.652;2023-02-15T01:13:39;2.10;99.90
3752;DHT22;50827;47.014;7.652;2023-02-15T01:16:06;2.10;99.90
3752;DHT22;50827;47.014;7.652;2023-02-15T01:18:35;2.10;99.90
3752;DHT22;50827;47.014;7.652;2023-02-15T01:21:10;2.10;99.90
3752;DHT22;50827;47.014;7.652;2023-02-15T01:23:37;2.20;99.90
3752;DHT22;50827;47.014;7.652;2023-02-15T01:26:03;2.10;99.90
3752;DHT22;50827;47.014;7.652;2023-02-15T01:28:31;2.10;99.90
3752;DHT22;50827;47.014;7.652;2023-02-15T01:30:57;2.10;99.90
3752;DHT22;50827;47.014;7.652;2023-02-15T01:33:25;2.10;99.90
3752;DHT22;50827;47.014;7.652;2023-02-15T01:35:58;2.10;99.90
3752;DHT22;50827;47.014;7.652;2023-02-15T01:38:25;2.10;99.90
3752;DHT22;50827;47.014;7.652;2023-02-15T01:40:53;2.00;99.90
3752;DHT22;50827;47.014;7.652;2023-02-15T01:43:20;1.90;99.90
3752;DHT22;50827;47.014;7.652;2023-02-15T01:45:48;1.90;99.90
3752;DHT22;50827;47.014;7.652;2023-02-15T01:48:27;1.90;99.90
3752;DHT22;50827;47.014;7.652;2023-02-15T01:50:59;2.00;99.90
3752;DHT22;50827;47.014;7.652;2023-02-15T01:53:33;2.00;99.90
3752;DHT22;50827;47.014;7.652;2023-02-15T01:56:16;2.00;99.90
3752;DHT22;50827;47.014;7.652;2023-02-15T01:58:45;2.00;99.90
3752;DHT22;50827;47.014;7.652;2023-02-15T02:01:13;1.90;99.90
3752;DHT22;50827;47.014;7.652;2023-02-15T02:06:23;1.80;99.90
3752;DHT22;50827;47.014;7.652;2023-02-15T02:08:53;1.70;99.90
3752;DHT22;50827;47.014;7.652;2023-02-15T02:11:20;1.70;99.90
3752;DHT22;50827;47.014;7.652;2023-02-15T02:13:47;1.70;99.90
3752;DHT22;50827;47.014;7.652;2023-02-15T02:16:36;1.70;99.90
3752;DHT22;50827;47.014;7.652;2023-02-15T02:19:19;1.70;99.90
3752;DHT22;50827;47.014;7.652;2023-02-15T02:22:28;1.60;99.90
3752;DHT22;50827;47.014;7.652;2023-02-15T02:27:45;1.60;99.90
3752;DHT22;50827;47.014;7.652;2023-02-15T02:39:47;1.60;99.90
3752;DHT22;50827;47.014;7.652;2023-02-15T02:44:42;1.60;99.90
3752;DHT22;50827;47.014;7.652;2023-02-15T02:47:13;1.50;99.90
3752;DHT22;50827;47.014;7.652;2023-02-15T02:49:43;1.60;99.90
3752;DHT22;50827;47.014;7.652;2023-02-15T02:52:42;1.60;99.90
3752;DHT22;50827;47.014;7.652;2023-02-15T03:00:21;1.60;99.90
3752;DHT22;50827;47.014;7.652;2023-02-15T03:02:52;1.60;99.90
3752;DHT22;50827;47.014;7.652;2023-02-15T03:05:22;1.60;99.90
3752;DHT22;50827;47.014;7.652;2023-02-15T03:07:52;1.60;99.90
3752;DHT22;50827;47.014;7.652;2023-02-15T03:10:22;1.60;99.90
3752;DHT22;50827;47.014;7.652;2023-02-15T03:12:51;1.60;99.90
3752;DHT22;50827;47.014;7.652;2023-02-15T03:15:21;1.60;99.90
3752;DHT22;50827;47.014;7.652;2023-02-15T03:17:54;1.60;99.90
3752;DHT22;50827;47.014;7.652;2023-02-15T03:20:29;1.50;99.90
3752;DHT22;50827;47.014;7.652;2023-02-15T03:23:01;1.50;99.90
3752;DHT22;50827;47.014;7.652;2023-02-15T03:25:36;1.60;99.90
3752;DHT22;50827;47.014;7.652;2023-02-15T03:28:10;1.60;99.90
3752;DHT22;50827;47.014;7.652;2023-02-15T03:30:39;1.50;99.90
3752;DHT22;50827;47.014;7.652;2023-02-15T03:33:07;1.50;99.90
3752;DHT22;50827;47.014;7.652;2023-02-15T03:36:28;1.50;99.90
3752;DHT22;50827;47.014;7.652;2023-02-15T03:38:44;1.50;99.90
3752;DHT22;50827;47.014;7.652;2023-02-15T03:41:16;1.50;99.90
3752;DHT22;50827;47.014;7.652;2023-02-15T03:43:54;1.50;99.90
3752;DHT22;50827;47.014;7.652;2023-02-15T03:49:00;1.50;99.90
3752;DHT22;50827;47.014;7.652;2023-02-15T03:51:31;1.50;99.90
3752;DHT22;50827;47.014;7.652;2023-02-15T03:54:17;1.50;99.90
3752;DHT22;50827;47.014;7.652;2023-02-15T03:57:05;1.50;99.90
3752;DHT22;50827;47.014;7.652;2023-02-15T03:59:51;1.50;99.90
3752;DHT22;50827;47.014;7.652;2023-02-15T04:03:01;1.40;99.90
3752;DHT22;50827;47.014;7.652;2023-02-15T04:05:30;1.40;99.90
3752;DHT22;50827;47.014;7.652;2023-02-15T04:07:57;1.40;99.90
3752;DHT22;50827;47.014;7.652;2023-02-15T04:10:24;1.40;99.90
3752;DHT22;50827;47.014;7.652;2023-02-15T04:13:09;1.40;99.90
3752;DHT22;50827;47.014;7.652;2023-02-15T04:15:35;1.40;99.90
3752;DHT22;50827;47.014;7.652;2023-02-15T04:18:21;1.50;99.90
3752;DHT22;50827;47.014;7.652;2023-02-15T04:20:48;1.50;99.90
3752;DHT22;50827;47.014;7.652;2023-02-15T04:23:33;1.60;99.90
3752;DHT22;50827;47.014;7.652;2023-02-15T04:26:18;1.50;99.90
3752;DHT22;50827;47.014;7.652;2023-02-15T04:28:44;1.50;99.90
3752;DHT22;50827;47.014;7.652;2023-02-15T04:31:11;1.50;99.90
3752;DHT22;50827;47.014;7.652;2023-02-15T04:33:38;1.60;99.90
3752;DHT22;50827;47.014;7.652;2023-02-15T04:36:05;1.50;99.90
3752;DHT22;50827;47.014;7.652;2023-02-15T04:38:31;1.50;99.90
3752;DHT22;50827;47.014;7.652;2023-02-15T04:40:58;1.50;99.90
3752;DHT22;50827;47.014;7.652;2023-02-15T04:43:24;1.60;99.90
3752;DHT22;50827;47.014;7.652;2023-02-15T04:45:51;1.40;99.90
3752;DHT22;50827;47.014;7.652;2023-02-15T04:48:18;1.40;99.90
3752;DHT22;50827;47.014;7.652;2023-02-15T04:50:45;1.40;99.90
3752;DHT22;50827;47.014;7.652;2023-02-15T04:53:11;1.40;99.90
3752;DHT22;50827;47.014;7.652;2023-02-15T04:55:38;1.40;99.90
3752;DHT22;50827;47.014;7.652;2023-02-15T04:58:05;1.50;99.90
3752;DHT22;50827;47.014;7.652;2023-02-15T05:00:31;1.50;99.90
3752;DHT22;50827;47.014;7.652;2023-02-15T05:02:58;1.40;99.90
3752;DHT22;50827;47.014;7.652;2023-02-15T05:05:25;1.30;99.90
3752;DHT22;50827;47.014;7.652;2023-02-15T05:07:52;1.30;99.90
3752;DHT22;50827;47.014;7.652;2023-02-15T05:10:19;1.30;99.90
3752;DHT22;50827;47.014;7.652;2023-02-15T05:12:46;1.30;99.90
3752;DHT22;50827;47.014;7.652;2023-02-15T05:15:12;1.40;99.90
3752;DHT22;50827;47.014;7.652;2023-02-15T05:17:39;1.40;99.90
3752;DHT22;50827;47.014;7.652;2023-02-15T05:20:06;1.40;99.90
3752;DHT22;50827;47.014;7.652;2023-02-15T05:22:33;1.30;99.90
3752;DHT22;50827;47.014;7.652;2023-02-15T05:25:00;1.20;99.90
3752;DHT22;50827;47.014;7.652;2023-02-15T05:27:45;1.20;99.90
3752;DHT22;50827;47.014;7.652;2023-02-15T05:30:31;1.20;99.90
3752;DHT22;50827;47.014;7.652;2023-02-15T05:32:57;1.10;99.90
3752;DHT22;50827;47.014;7.652;2023-02-15T05:35:24;1.10;99.90
3752;DHT22;50827;47.014;7.652;2023-02-15T05:37:51;1.10;99.90
3752;DHT22;50827;47.014;7.652;2023-02-15T05:40:17;1.10;99.90
3752;DHT22;50827;47.014;7.652;2023-02-15T05:42:44;1.10;99.90
3752;DHT22;50827;47.014;7.652;2023-02-15T05:45:11;1.00;99.90
3752;DHT22;50827;47.014;7.652;2023-02-15T05:47:38;1.00;99.90
3752;DHT22;50827;47.014;7.652;2023-02-15T05:50:05;1.00;99.90
3752;DHT22;50827;47.014;7.652;2023-02-15T05:52:31;1.10;99.90
3752;DHT22;50827;47.014;7.652;2023-02-15T05:54:58;1.10;99.90
3752;DHT22;50827;47.014;7.652;2023-02-15T05:57:27;1.00;99.90
3752;DHT22;50827;47.014;7.652;2023-02-15T05:59:53;1.00;99.90
3752;DHT22;50827;47.014;7.652;2023-02-15T06:02:20;0.90;99.90
3752;DHT22;50827;47.014;7.652;2023-02-15T06:04:47;0.90;99.90
3752;DHT22;50827;47.014;7.652;2023-02-15T06:07:13;0.90;99.90
3752;DHT22;50827;47.014;7.652;2023-02-15T06:09:40;0.90;99.90
3752;DHT22;50827;47.014;7.652;2023-02-15T06:12:07;0.90;99.90
3752;DHT22;50827;47.014;7.652;2023-02-15T06:14:33;0.90;99.90
3752;DHT22;50827;47.014;7.652;2023-02-15T06:17:00;1.00;99.90
3752;DHT22;50827;47.014;7.652;2023-02-15T06:19:26;1.00;99.90
3752;DHT22;50827;47.014;7.652;2023-02-15T06:21:53;0.90;99.90
3752;DHT22;50827;47.014;7.652;2023-02-15T06:24:20;1.00;99.90
3752;DHT22;50827;47.014;7.652;2023-02-15T06:26:46;1.00;99.90
3752;DHT22;50827;47.014;7.652;2023-02-15T06:29:13;1.10;99.90
3752;DHT22;50827;47.014;7.652;2023-02-15T06:31:39;1.10;99.90
3752;DHT22;50827;47.014;7.652;2023-02-15T06:34:06;1.10;99.90
3752;DHT22;50827;47.014;7.652;2023-02-15T06:36:33;1.10;99.90
3752;DHT22;50827;47.014;7.652;2023-02-15T06:38:59;1.10;99.90
3752;DHT22;50827;47.014;7.652;2023-02-15T06:41:26;1.10;99.90
3752;DHT22;50827;47.014;7.652;2023-02-15T06:43:53;1.00;99.90
3752;DHT22;50827;47.014;7.652;2023-02-15T06:46:19;1.10;99.90
3752;DHT22;50827;47.014;7.652;2023-02-15T06:48:46;1.10;99.90
3752;DHT22;50827;47.014;7.652;2023-02-15T06:51:13;1.10;99.90
3752;DHT22;50827;47.014;7.652;2023-02-15T06:53:39;1.00;99.90
3752;DHT22;50827;47.014;7.652;2023-02-15T06:56:09;1.00;99.90
3752;DHT22;50827;47.014;7.652;2023-02-15T06:58:38;1.00;99.90
3752;DHT22;50827;47.014;7.652;2023-02-15T07:01:05;0.90;99.90
3752;DHT22;50827;47.014;7.652;2023-02-15T07:03:32;1.00;99.90
3752;DHT22;50827;47.014;7.652;2023-02-15T07:06:00;1.10;99.90
3752;DHT22;50827;47.014;7.652;2023-02-15T07:08:28;1.10;99.90
3752;DHT22;50827;47.014;7.652;2023-02-15T07:10:55;1.10;99.90
3752;DHT22;50827;47.014;7.652;2023-02-15T07:13:47;1.10;99.90
3752;DHT22;50827;47.014;7.652;2023-02-15T07:16:14;1.10;99.90
3752;DHT22;50827;47.014;7.652;2023-02-15T07:18:41;1.10;99.90
3752;DHT22;50827;47.014;7.652;2023-02-15T07:21:07;1.10;99.90
3752;DHT22;50827;47.014;7.652;2023-02-15T07:23:38;1.10;99.90
3752;DHT22;50827;47.014;7.652;2023-02-15T07:26:06;1.20;99.90
3752;DHT22;50827;47.014;7.652;2023-02-15T07:28:34;1.20;99.90
3752;DHT22;50827;47.014;7.652;2023-02-15T07:31:02;1.20;99.90
3752;DHT22;50827;47.014;7.652;2023-02-15T07:33:31;1.30;99.90
3752;DHT22;50827;47.014;7.652;2023-02-15T07:35:59;1.30;99.90
3752;DHT22;50827;47.014;7.652;2023-02-15T07:38:34;1.30;99.90
3752;DHT22;50827;47.014;7.652;2023-02-15T07:41:02;1.40;99.90
3752;DHT22;50827;47.014;7.652;2023-02-15T07:43:29;1.40;99.90
3752;DHT22;50827;47.014;7.652;2023-02-15T07:46:08;1.40;99.90
3752;DHT22;50827;47.014;7.652;2023-02-15T07:48:36;1.50;99.90
3752;DHT22;50827;47.014;7.652;2023-02-15T07:51:04;1.50;99.90
3752;DHT22;50827;47.014;7.652;2023-02-15T07:53:32;1.60;99.90
3752;DHT22;50827;47.014;7.652;2023-02-15T07:56:00;1.70;99.90
3752;DHT22;50827;47.014;7.652;2023-02-15T07:58:27;1.70;99.90
3752;DHT22;50827;47.014;7.652;2023-02-15T08:01:14;1.80;99.90
3752;DHT22;50827;47.014;7.652;2023-02-15T08:03:40;1.90;99.90
3752;DHT22;50827;47.014;7.652;2023-02-15T08:06:07;2.00;99.90
3752;DHT22;50827;47.014;7.652;2023-02-15T08:08:34;1.90;99.90
3752;DHT22;50827;47.014;7.652;2023-02-15T08:11:05;2.00;99.90
3752;DHT22;50827;47.014;7.652;2023-02-15T08:13:52;2.10;99.90
3752;DHT22;50827;47.014;7.652;2023-02-15T08:18:58;2.20;99.90
3752;DHT22;50827;47.014;7.652;2023-02-15T08:21:27;2.20;99.90
3752;DHT22;50827;47.014;7.652;2023-02-15T08:23:55;2.20;99.90
3752;DHT22;50827;47.014;7.652;2023-02-15T08:26:23;2.20;99.90
3752;DHT22;50827;47.014;7.652;2023-02-15T08:28:51;2.20;99.90
3752;DHT22;50827;47.014;7.652;2023-02-15T08:31:18;2.30;99.90
3752;DHT22;50827;47.014;7.652;2023-02-15T08:33:47;2.30;99.90
3752;DHT22;50827;47.014;7.652;2023-02-15T08:36:17;2.40;99.90
3752;DHT22;50827;47.014;7.652;2023-02-15T08:38:45;2.50;99.90
3752;DHT22;50827;47.014;7.652;2023-02-15T08:43:55;2.50;99.90
3752;DHT22;50827;47.014;7.652;2023-02-15T08:46:25;2.60;99.90
3752;DHT22;50827;47.014;7.652;2023-02-15T08:48:52;2.70;99.90
3752;DHT22;50827;47.014;7.652;2023-02-15T08:51:24;2.70;99.90
3752;DHT22;50827;47.014;7.652;2023-02-15T08:53:54;2.80;99.90
3752;DHT22;50827;47.014;7.652;2023-02-15T08:56:24;2.90;99.90
3752;DHT22;50827;47.014;7.652;2023-02-15T08:58:55;2.90;99.90
3752;DHT22;50827;47.014;7.652;2023-02-15T09:01:27;3.00;99.90
3752;DHT22;50827;47.014;7.652;2023-02-15T09:04:04;3.10;99.90
3752;DHT22;50827;47.014;7.652;2023-02-15T09:06:32;3.10;99.90
3752;DHT22;50827;47.014;7.652;2023-02-15T09:08:59;3.20;99.90
3752;DHT22;50827;47.014;7.652;2023-02-15T09:11:30;3.30;99.90
3752;DHT22;50827;47.014;7.652;2023-02-15T09:14:18;3.40;99.90
3752;DHT22;50827;47.014;7.652;2023-02-15T09:16:47;3.40;99.90
3752;DHT22;50827;47.014;7.652;2023-02-15T09:19:16;3.40;99.90
3752;DHT22;50827;47.014;7.652;2023-02-15T09:21:44;3.50;99.90
3752;DHT22;50827;47.014;7.652;2023-02-15T09:24:13;3.50;99.90
3752;DHT22;50827;47.014;7.652;2023-02-15T09:26:42;3.60;99.90
3752;DHT22;50827;47.014;7.652;2023-02-15T09:29:11;3.60;99.90
3752;DHT22;50827;47.014;7.652;2023-02-15T09:31:43;3.70;99.90
3752;DHT22;50827;47.014;7.652;2023-02-15T09:34:12;3.80;99.90
3752;DHT22;50827;47.014;7.652;2023-02-15T09:36:40;3.90;99.90
3752;DHT22;50827;47.014;7.652;2023-02-15T09:39:10;4.00;99.90
3752;DHT22;50827;47.014;7.652;2023-02-15T09:41:58;4.00;99.90
3752;DHT22;50827;47.014;7.652;2023-02-15T09:50:15;4.30;99.90
3752;DHT22;50827;47.014;7.652;2023-02-15T10:01:12;4.60;99.90
3752;DHT22;50827;47.014;7.652;2023-02-15T10:03:48;4.60;99.90
3752;DHT22;50827;47.014;7.652;2023-02-15T10:12:12;4.80;99.90
3752;DHT22;50827;47.014;7.652;2023-02-15T10:17:47;5.00;99.90
3752;DHT22;50827;47.014;7.652;2023-02-15T10:20:23;5.10;99.90
3752;DHT22;50827;47.014;7.652;2023-02-15T10:23:14;5.10;99.90
3752;DHT22;50827;47.014;7.652;2023-02-15T10:33:52;5.50;99.90
3752;DHT22;50827;47.014;7.652;2023-02-15T10:47:47;5.80;99.90
3752;DHT22;50827;47.014;7.652;2023-02-15T10:59:10;6.10;99.90
3752;DHT22;50827;47.014;7.652;2023-02-15T11:07:33;6.30;99.90
3752;DHT22;50827;47.014;7.652;2023-02-15T11:12:45;6.60;99.90
3752;DHT22;50827;47.014;7.652;2023-02-15T11:15:21;6.60;99.90
3752;DHT22;50827;47.014;7.652;2023-02-15T11:17:56;6.60;99.90
3752;DHT22;50827;47.014;7.652;2023-02-15T11:22:59;6.80;99.90
3752;DHT22;50827;47.014;7.652;2023-02-15T11:25:30;6.90;99.90
3752;DHT22;50827;47.014;7.652;2023-02-15T11:27:58;7.00;99.90
3752;DHT22;50827;47.014;7.652;2023-02-15T11:30:38;7.10;99.90
3752;DHT22;50827;47.014;7.652;2023-02-15T11:33:20;7.10;99.90
3752;DHT22;50827;47.014;7.652;2023-02-15T11:36:14;7.20;99.90
3752;DHT22;50827;47.014;7.652;2023-02-15T11:38:45;7.30;99.90
3752;DHT22;50827;47.014;7.652;2023-02-15T11:41:20;7.40;99.90
3752;DHT22;50827;47.014;7.652;2023-02-15T11:46:19;7.50;99.90
3752;DHT22;50827;47.014;7.652;2023-02-15T11:48:48;7.60;99.90
3752;DHT22;50827;47.014;7.652;2023-02-15T11:51:18;7.70;99.90
3752;DHT22;50827;47.014;7.652;2023-02-15T11:53:50;7.80;99.90
3752;DHT22;50827;47.014;7.652;2023-02-15T11:56:22;7.90;99.90
3752;DHT22;50827;47.014;7.652;2023-02-15T12:06:40;8.20;99.90
3752;DHT22;50827;47.014;7.652;2023-02-15T12:11:48;8.40;99.90
3752;DHT22;50827;47.014;7.652;2023-02-15T12:14:15;8.40;99.90
3752;DHT22;50827;47.014;7.652;2023-02-15T12:19:47;8.60;99.90
3752;DHT22;50827;47.014;7.652;2023-02-15T12:22:23;8.60;99.90
3752;DHT22;50827;47.014;7.652;2023-02-15T12:24:54;8.80;99.90
3752;DHT22;50827;47.014;7.652;2023-02-15T12:29:56;8.90;99.90
3752;DHT22;50827;47.014;7.652;2023-02-15T12:32:28;9.00;99.90
3752;DHT22;50827;47.014;7.652;2023-02-15T12:35:02;9.10;99.90
3752;DHT22;50827;47.014;7.652;2023-02-15T12:37:33;9.10;99.90
3752;DHT22;50827;47.014;7.652;2023-02-15T12:40:18;9.10;99.90
3752;DHT22;50827;47.014;7.652;2023-02-15T12:42:45;9.20;99.90
3752;DHT22;50827;47.014;7.652;2023-02-15T12:48:17;9.30;99.90
3752;DHT22;50827;47.014;7.652;2023-02-15T12:50:51;9.40;99.90
3752;DHT22;50827;47.014;7.652;2023-02-15T12:53:41;9.50;99.90
3752;DHT22;50827;47.014;7.652;2023-02-15T12:56:10;9.50;99.90
3752;DHT22;50827;47.014;7.652;2023-02-15T12:58:40;9.50;99.90
3752;DHT22;50827;47.014;7.652;2023-02-15T13:01:14;9.60;99.90
3752;DHT22;50827;47.014;7.652;2023-02-15T13:04:04;9.60;99.90
3752;DHT22;50827;47.014;7.652;2023-02-15T13:06:34;9.70;99.90
3752;DHT22;50827;47.014;7.652;2023-02-15T13:09:16;9.70;99.90
3752;DHT22;50827;47.014;7.652;2023-02-15T13:11:44;9.70;99.90
3752;DHT22;50827;47.014;7.652;2023-02-15T13:14:22;9.80;99.90
3752;DHT22;50827;47.014;7.652;2023-02-15T13:16:56;9.80;99.90
3752;DHT22;50827;47.014;7.652;2023-02-15T13:19:41;9.90;99.90
3752;DHT22;50827;47.014;7.652;2023-02-15T13:22:14;9.90;99.90
3752;DHT22;50827;47.014;7.652;2023-02-15T13:25:12;10.00;99.90
3752;DHT22;50827;47.014;7.652;2023-02-15T13:27:41;10.10;99.90
3752;DHT22;50827;47.014;7.652;2023-02-15T13:30:20;10.10;99.90
3752;DHT22;50827;47.014;7.652;2023-02-15T13:32:50;10.10;99.90
3752;DHT22;50827;47.014;7.652;2023-02-15T13:35:18;10.20;99.90
3752;DHT22;50827;47.014;7.652;2023-02-15T13:40:55;10.30;99.90
3752;DHT22;50827;47.014;7.652;2023-02-15T13:57:45;10.40;99.90
3752;DHT22;50827;47.014;7.652;2023-02-15T14:00:48;10.50;99.90
3752;DHT22;50827;47.014;7.652;2023-02-15T14:06:52;10.50;99.90
3752;DHT22;50827;47.014;7.652;2023-02-15T14:09:57;10.60;99.90
3752;DHT22;50827;47.014;7.652;2023-02-15T14:15:28;10.60;99.90
3752;DHT22;50827;47.014;7.652;2023-02-15T14:26:52;10.70;99.90
3752;DHT22;50827;47.014;7.652;2023-02-15T14:29:28;10.70;99.90
3752;DHT22;50827;47.014;7.652;2023-02-15T14:32:03;10.70;99.90
3752;DHT22;50827;47.014;7.652;2023-02-15T14:34:46;10.70;99.90
3752;DHT22;50827;47.014;7.652;2023-02-15T14:37:20;10.70;99.90
3752;DHT22;50827;47.014;7.652;2023-02-15T14:39:55;10.70;99.90
3752;DHT22;50827;47.014;7.652;2023-02-15T14:45:31;10.70;99.90
3752;DHT22;50827;47.014;7.652;2023-02-15T14:48:11;10.70;99.90
3752;DHT22;50827;47.014;7.652;2023-02-15T14:50:44;10.70;99.90
3752;DHT22;50827;47.014;7.652;2023-02-15T14:56:19;10.70;99.90
3752;DHT22;50827;47.014;7.652;2023-02-15T15:01:16;10.70;99.90
3752;DHT22;50827;47.014;7.652;2023-02-15T15:03:53;10.70;99.90
3752;DHT22;50827;47.014;7.652;2023-02-15T15:06:26;10.70;99.90
3752;DHT22;50827;47.014;7.652;2023-02-15T15:09:19;10.70;99.90
3752;DHT22;50827;47.014;7.652;2023-02-15T15:11:48;10.70;99.90
3752;DHT22;50827;47.014;7.652;2023-02-15T15:14:36;10.70;99.90
3752;DHT22;50827;47.014;7.652;2023-02-15T15:17:04;10.80;99.90
3752;DHT22;50827;47.014;7.652;2023-02-15T15:22:20;10.70;99.90
3752;DHT22;50827;47.014;7.652;2023-02-15T15:24:48;10.80;99.90
3752;DHT22;50827;47.014;7.652;2023-02-15T15:35:35;10.70;99.90
3752;DHT22;50827;47.014;7.652;2023-02-15T15:47:24;10.50;99.90
3752;DHT22;50827;47.014;7.652;2023-02-15T15:49:57;10.40;99.90
3752;DHT22;50827;47.014;7.652;2023-02-15T15:52:26;10.30;99.90
3752;DHT22;50827;47.014;7.652;2023-02-15T15:54:57;10.30;99.90
3752;DHT22;50827;47.014;7.652;2023-02-15T15:57:37;10.20;99.90
3752;DHT22;50827;47.014;7.652;2023-02-15T16:02:52;10.10;99.90
3752;DHT22;50827;47.014;7.652;2023-02-15T16:05:19;10.10;99.90
3752;DHT22;50827;47.014;7.652;2023-02-15T16:07:46;10.00;99.90
3752;DHT22;50827;47.014;7.652;2023-02-15T16:10:21;10.00;99.90
3752;DHT22;50827;47.014;7.652;2023-02-15T16:12:49;9.90;99.90
3752;DHT22;50827;47.014;7.652;2023-02-15T16:15:20;9.80;99.90
3752;DHT22;50827;47.014;7.652;2023-02-15T16:17:53;9.80;99.90
3752;DHT22;50827;47.014;7.652;2023-02-15T16:20:26;9.70;99.90
3752;DHT22;50827;47.014;7.652;2023-02-15T16:28:14;9.50;99.90
3752;DHT22;50827;47.014;7.652;2023-02-15T16:30:41;9.50;99.90
3752;DHT22;50827;47.014;7.652;2023-02-15T16:33:14;9.50;99.90
3752;DHT22;50827;47.014;7.652;2023-02-15T16:35:58;9.40;99.90
3752;DHT22;50827;47.014;7.652;2023-02-15T16:39:05;9.40;99.90
3752;DHT22;50827;47.014;7.652;2023-02-15T16:41:32;9.30;99.90
3752;DHT22;50827;47.014;7.652;2023-02-15T16:44:05;9.20;99.90
3752;DHT22;50827;47.014;7.652;2023-02-15T16:46:39;9.20;99.90
3752;DHT22;50827;47.014;7.652;2023-02-15T16:49:18;9.20;99.90
3752;DHT22;50827;47.014;7.652;2023-02-15T16:51:56;9.10;99.90
3752;DHT22;50827;47.014;7.652;2023-02-15T16:54:25;9.00;99.90
3752;DHT22;50827;47.014;7.652;2023-02-15T16:56:53;9.00;99.90
3752;DHT22;50827;47.014;7.652;2023-02-15T16:59:41;8.90;99.90
3752;DHT22;50827;47.014;7.652;2023-02-15T17:07:48;8.70;99.90
3752;DHT22;50827;47.014;7.652;2023-02-15T17:10:29;8.60;99.90
3752;DHT22;50827;47.014;7.652;2023-02-15T17:18:39;8.00;99.90
3752;DHT22;50827;47.014;7.652;2023-02-15T17:21:25;7.80;99.90
3752;DHT22;50827;47.014;7.652;2023-02-15T17:23:57;7.70;99.90
3752;DHT22;50827;47.014;7.652;2023-02-15T17:26:35;7.80;99.90
3752;DHT22;50827;47.014;7.652;2023-02-15T17:31:39;7.70;99.90
3752;DHT22;50827;47.014;7.652;2023-02-15T17:34:41;7.70;99.90
3752;DHT22;50827;47.014;7.652;2023-02-15T17:42:44;7.60;99.90
3752;DHT22;50827;47.014;7.652;2023-02-15T17:45:10;7.60;99.90
3752;DHT22;50827;47.014;7.652;2023-02-15T17:47:41;7.60;99.90
3752;DHT22;50827;47.014;7.652;2023-02-15T17:50:17;7.50;99.90
3752;DHT22;50827;47.014;7.652;2023-02-15T17:52:45;7.40;99.90
3752;DHT22;50827;47.014;7.652;2023-02-15T17:55:19;7.40;99.90
3752;DHT22;50827;47.014;7.652;2023-02-15T17:58:03;7.40;99.90
3752;DHT22;50827;47.014;7.652;2023-02-15T18:00:30;7.30;99.90
3752;DHT22;50827;47.014;7.652;2023-02-15T18:03:16;7.30;99.90
3752;DHT22;50827;47.014;7.652;2023-02-15T18:06:02;7.20;99.90
3752;DHT22;50827;47.014;7.652;2023-02-15T18:08:47;7.20;99.90
3752;DHT22;50827;47.014;7.652;2023-02-15T18:11:33;7.10;99.90
3752;DHT22;50827;47.014;7.652;2023-02-15T18:14:05;7.10;99.90
3752;DHT22;50827;47.014;7.652;2023-02-15T18:16:40;7.10;99.90
3752;DHT22;50827;47.014;7.652;2023-02-15T18:19:16;7.00;99.90
3752;DHT22;50827;47.014;7.652;2023-02-15T18:21:46;7.00;99.90
3752;DHT22;50827;47.014;7.652;2023-02-15T18:24:19;7.00;99.90
3752;DHT22;50827;47.014;7.652;2023-02-15T18:26:47;7.00;99.90
3752;DHT22;50827;47.014;7.652;2023-02-15T18:29:14;6.90;99.90
3752;DHT22;50827;47.014;7.652;2023-02-15T18:31:41;6.90;99.90
3752;DHT22;50827;47.014;7.652;2023-02-15T18:34:21;6.80;99.90
3752;DHT22;50827;47.014;7.652;2023-02-15T18:36:48;6.80;99.90
3752;DHT22;50827;47.014;7.652;2023-02-15T18:41:53;6.70;99.90
3752;DHT22;50827;47.014;7.652;2023-02-15T18:44:20;6.70;99.90
3752;DHT22;50827;47.014;7.652;2023-02-15T18:46:46;6.70;99.90
3752;DHT22;50827;47.014;7.652;2023-02-15T18:49:13;6.70;99.90
3752;DHT22;50827;47.014;7.652;2023-02-15T18:51:40;6.70;99.90
3752;DHT22;50827;47.014;7.652;2023-02-15T18:54:19;6.70;99.90
3752;DHT22;50827;47.014;7.652;2023-02-15T18:56:52;6.60;99.90
3752;DHT22;50827;47.014;7.652;2023-02-15T18:59:21;6.60;99.90
3752;DHT22;50827;47.014;7.652;2023-02-15T19:01:48;6.60;99.90
3752;DHT22;50827;47.014;7.652;2023-02-15T19:04:15;6.60;99.90
3752;DHT22;50827;47.014;7.652;2023-02-15T19:06:45;6.40;99.90
3752;DHT22;50827;47.014;7.652;2023-02-15T19:09:17;6.20;99.90
3752;DHT22;50827;47.014;7.652;2023-02-15T19:11:55;6.20;99.90
3752;DHT22;50827;47.014;7.652;2023-02-15T19:14:30;6.20;99.90
3752;DHT22;50827;47.014;7.652;2023-02-15T19:16:58;6.10;99.90
3752;DHT22;50827;47.014;7.652;2023-02-15T19:19:26;6.00;99.90
3752;DHT22;50827;47.014;7.652;2023-02-15T19:21:53;5.80;99.90
3752;DHT22;50827;47.014;7.652;2023-02-15T19:24:53;5.70;99.90
3752;DHT22;50827;47.014;7.652;2023-02-15T19:27:24;5.80;99.90
3752;DHT22;50827;47.014;7.652;2023-02-15T19:29:52;5.80;99.90
3752;DHT22;50827;47.014;7.652;2023-02-15T19:32:19;5.90;99.90
3752;DHT22;50827;47.014;7.652;2023-02-15T19:34:46;5.90;99.90
3752;DHT22;50827;47.014;7.652;2023-02-15T19:37:29;5.80;99.90
3752;DHT22;50827;47.014;7.652;2023-02-15T19:39:59;5.80;99.90
3752;DHT22;50827;47.014;7.652;2023-02-15T19:42:27;5.90;99.90
3752;DHT22;50827;47.014;7.652;2023-02-15T19:44:54;5.80;99.90
3752;DHT22;50827;47.014;7.652;2023-02-15T19:47:21;5.80;99.90
3752;DHT22;50827;47.014;7.652;2023-02-15T19:49:48;5.70;99.90
3752;DHT22;50827;47.014;7.652;2023-02-15T19:52:19;5.60;99.90
3752;DHT22;50827;47.014;7.652;2023-02-15T19:54:49;5.60;99.90
3752;DHT22;50827;47.014;7.652;2023-02-15T19:57:17;5.60;99.90